sensor_id;sensor_type;location;lat;lon;timestamp;P1;durP1;ratioP1;P2;durP2;ratioP2
13445;SDS011;6795;51.232;3.764;2023-11-21T00:00:08;144.50;;;62.83;;
13445;SDS011;6795;51.232;3.764;2023-11-21T00:02:39;138.03;;;52.73;;
13445;SDS011;6795;51.232;3.764;2023-11-21T00:05:09;145.50;;;53.85;;
13445;SDS011;6795;51.232;3.764;2023-11-21T00:07:41;146.27;;;55.57;;
13445;SDS011;6795;51.232;3.764;2023-11-21T00:10:10;141.45;;;53.80;;
13445;SDS011;6795;51.232;3.764;2023-11-21T00:12:41;134.77;;;53.60;;
13445;SDS011;6795;51.232;3.764;2023-11-21T00:15:10;127.95;;;51.97;;
13445;SDS011;6795;51.232;3.764;2023-11-21T00:17:39;129.10;;;64.97;;
13445;SDS011;6795;51.232;3.764;2023-11-21T00:20:09;135.98;;;53.33;;
13445;SDS011;6795;51.232;3.764;2023-11-21T00:22:40;135.63;;;53.95;;
13445;SDS011;6795;51.232;3.764;2023-11-21T00:25:09;134.27;;;53.60;;
13445;SDS011;6795;51.232;3.764;2023-11-21T00:27:38;135.73;;;60.63;;
13445;SDS011;6795;51.232;3.764;2023-11-21T00:30:07;136.73;;;53.43;;
13445;SDS011;6795;51.232;3.764;2023-11-21T00:32:36;128.50;;;51.90;;
13445;SDS011;6795;51.232;3.764;2023-11-21T00:35:05;123.15;;;52.35;;
13445;SDS011;6795;51.232;3.764;2023-11-21T00:37:36;126.87;;;53.37;;
13445;SDS011;6795;51.232;3.764;2023-11-21T00:40:06;137.77;;;53.60;;
13445;SDS011;6795;51.232;3.764;2023-11-21T00:42:36;126.35;;;51.88;;
13445;SDS011;6795;51.232;3.764;2023-11-21T00:45:05;129.63;;;52.47;;
13445;SDS011;6795;51.232;3.764;2023-11-21T00:47:35;131.88;;;60.55;;
13445;SDS011;6795;51.232;3.764;2023-11-21T00:50:04;128.17;;;54.60;;
13445;SDS011;6795;51.232;3.764;2023-11-21T00:52:33;133.57;;;53.65;;
13445;SDS011;6795;51.232;3.764;2023-11-21T00:55:04;118.85;;;51.58;;
13445;SDS011;6795;51.232;3.764;2023-11-21T00:57:34;137.52;;;53.03;;
13445;SDS011;6795;51.232;3.764;2023-11-21T01:00:03;127.40;;;55.67;;
13445;SDS011;6795;51.232;3.764;2023-11-21T01:02:37;118.57;;;51.27;;
13445;SDS011;6795;51.232;3.764;2023-11-21T01:05:06;123.33;;;53.13;;
13445;SDS011;6795;51.232;3.764;2023-11-21T01:07:35;117.90;;;51.90;;
13445;SDS011;6795;51.232;3.764;2023-11-21T01:10:06;132.10;;;54.25;;
13445;SDS011;6795;51.232;3.764;2023-11-21T01:12:36;124.30;;;52.87;;
13445;SDS011;6795;51.232;3.764;2023-11-21T01:15:05;118.28;;;50.85;;
13445;SDS011;6795;51.232;3.764;2023-11-21T01:17:35;118.50;;;51.00;;
13445;SDS011;6795;51.232;3.764;2023-11-21T01:20:05;106.57;;;47.77;;
13445;SDS011;6795;51.232;3.764;2023-11-21T01:22:39;118.63;;;50.83;;
13445;SDS011;6795;51.232;3.764;2023-11-21T01:25:09;112.40;;;48.13;;
13445;SDS011;6795;51.232;3.764;2023-11-21T01:27:38;111.50;;;47.60;;
13445;SDS011;6795;51.232;3.764;2023-11-21T01:30:07;101.20;;;47.28;;
13445;SDS011;6795;51.232;3.764;2023-11-21T01:32:37;111.85;;;48.65;;
13445;SDS011;6795;51.232;3.764;2023-11-21T01:35:07;108.07;;;48.92;;
13445;SDS011;6795;51.232;3.764;2023-11-21T01:37:36;104.65;;;47.67;;
13445;SDS011;6795;51.232;3.764;2023-11-21T01:40:06;114.50;;;47.88;;
13445;SDS011;6795;51.232;3.764;2023-11-21T01:42:41;107.30;;;48.83;;
13445;SDS011;6795;51.232;3.764;2023-11-21T01:45:11;101.25;;;47.67;;
13445;SDS011;6795;51.232;3.764;2023-11-21T01:47:41;101.03;;;47.05;;
13445;SDS011;6795;51.232;3.764;2023-11-21T01:50:13;106.25;;;47.40;;
13445;SDS011;6795;51.232;3.764;2023-11-21T01:52:45;104.00;;;48.03;;
13445;SDS011;6795;51.232;3.764;2023-11-21T01:55:14;101.82;;;47.08;;
13445;SDS011;6795;51.232;3.764;2023-11-21T01:57:55;109.72;;;48.25;;
13445;SDS011;6795;51.232;3.764;2023-11-21T02:00:26;100.38;;;46.33;;
13445;SDS011;6795;51.232;3.764;2023-11-21T02:02:56;95.28;;;46.42;;
13445;SDS011;6795;51.232;3.764;2023-11-21T02:05:26;97.40;;;45.08;;
13445;SDS011;6795;51.232;3.764;2023-11-21T02:07:56;109.45;;;47.53;;
13445;SDS011;6795;51.232;3.764;2023-11-21T02:10:24;107.03;;;47.92;;
13445;SDS011;6795;51.232;3.764;2023-11-21T02:12:53;106.30;;;46.85;;
13445;SDS011;6795;51.232;3.764;2023-11-21T02:15:24;101.55;;;47.53;;
13445;SDS011;6795;51.232;3.764;2023-11-21T02:17:55;108.20;;;47.40;;
13445;SDS011;6795;51.232;3.764;2023-11-21T02:20:25;98.95;;;45.63;;
13445;SDS011;6795;51.232;3.764;2023-11-21T02:22:57;101.00;;;45.70;;
13445;SDS011;6795;51.232;3.764;2023-11-21T02:25:27;103.45;;;48.95;;
13445;SDS011;6795;51.232;3.764;2023-11-21T02:27:57;95.55;;;45.38;;
13445;SDS011;6795;51.232;3.764;2023-11-21T02:30:27;95.30;;;44.38;;
13445;SDS011;6795;51.232;3.764;2023-11-21T02:32:58;103.47;;;45.83;;
13445;SDS011;6795;51.232;3.764;2023-11-21T02:35:27;96.35;;;40.78;;
13445;SDS011;6795;51.232;3.764;2023-11-21T02:37:59;96.03;;;42.77;;
13445;SDS011;6795;51.232;3.764;2023-11-21T02:40:28;94.20;;;40.45;;
13445;SDS011;6795;51.232;3.764;2023-11-21T02:42:57;92.80;;;41.10;;
13445;SDS011;6795;51.232;3.764;2023-11-21T02:45:26;88.18;;;39.00;;
13445;SDS011;6795;51.232;3.764;2023-11-21T02:47:55;93.80;;;40.75;;
13445;SDS011;6795;51.232;3.764;2023-11-21T02:50:25;89.75;;;38.47;;
13445;SDS011;6795;51.232;3.764;2023-11-21T02:52:54;92.43;;;38.30;;
13445;SDS011;6795;51.232;3.764;2023-11-21T02:55:26;86.15;;;38.20;;
13445;SDS011;6795;51.232;3.764;2023-11-21T02:57:54;89.60;;;38.03;;
13445;SDS011;6795;51.232;3.764;2023-11-21T03:00:24;88.93;;;37.10;;
13445;SDS011;6795;51.232;3.764;2023-11-21T03:02:52;89.22;;;38.42;;
13445;SDS011;6795;51.232;3.764;2023-11-21T03:05:22;92.55;;;38.10;;
13445;SDS011;6795;51.232;3.764;2023-11-21T03:07:50;96.22;;;37.25;;
13445;SDS011;6795;51.232;3.764;2023-11-21T03:10:19;82.75;;;37.00;;
13445;SDS011;6795;51.232;3.764;2023-11-21T03:12:48;87.82;;;38.03;;
13445;SDS011;6795;51.232;3.764;2023-11-21T03:15:17;86.95;;;37.42;;
13445;SDS011;6795;51.232;3.764;2023-11-21T03:17:45;88.25;;;37.15;;
13445;SDS011;6795;51.232;3.764;2023-11-21T03:20:15;83.65;;;37.60;;
13445;SDS011;6795;51.232;3.764;2023-11-21T03:22:44;84.25;;;37.35;;
13445;SDS011;6795;51.232;3.764;2023-11-21T03:25:12;77.95;;;37.15;;
13445;SDS011;6795;51.232;3.764;2023-11-21T03:27:41;81.88;;;37.65;;
13445;SDS011;6795;51.232;3.764;2023-11-21T03:30:12;90.60;;;37.08;;
13445;SDS011;6795;51.232;3.764;2023-11-21T03:32:40;82.53;;;36.30;;
13445;SDS011;6795;51.232;3.764;2023-11-21T03:35:09;91.15;;;38.47;;
13445;SDS011;6795;51.232;3.764;2023-11-21T03:37:37;85.65;;;36.38;;
13445;SDS011;6795;51.232;3.764;2023-11-21T03:40:08;94.65;;;37.75;;
13445;SDS011;6795;51.232;3.764;2023-11-21T03:42:39;87.25;;;35.83;;
13445;SDS011;6795;51.232;3.764;2023-11-21T03:45:08;80.95;;;35.33;;
13445;SDS011;6795;51.232;3.764;2023-11-21T03:47:41;82.03;;;37.72;;
13445;SDS011;6795;51.232;3.764;2023-11-21T03:50:10;90.28;;;33.95;;
13445;SDS011;6795;51.232;3.764;2023-11-21T03:52:38;84.72;;;34.47;;
13445;SDS011;6795;51.232;3.764;2023-11-21T03:55:08;89.82;;;35.10;;
13445;SDS011;6795;51.232;3.764;2023-11-21T03:57:37;88.40;;;34.80;;
13445;SDS011;6795;51.232;3.764;2023-11-21T04:00:06;89.18;;;35.30;;
13445;SDS011;6795;51.232;3.764;2023-11-21T04:02:36;92.80;;;35.60;;
13445;SDS011;6795;51.232;3.764;2023-11-21T04:05:07;85.50;;;35.20;;
13445;SDS011;6795;51.232;3.764;2023-11-21T04:07:36;91.28;;;34.08;;
13445;SDS011;6795;51.232;3.764;2023-11-21T04:10:06;81.88;;;33.60;;
13445;SDS011;6795;51.232;3.764;2023-11-21T04:12:36;82.13;;;33.50;;
13445;SDS011;6795;51.232;3.764;2023-11-21T04:15:04;78.20;;;33.03;;
13445;SDS011;6795;51.232;3.764;2023-11-21T04:17:35;94.20;;;33.05;;
13445;SDS011;6795;51.232;3.764;2023-11-21T04:20:04;85.72;;;33.20;;
13445;SDS011;6795;51.232;3.764;2023-11-21T04:22:40;92.35;;;33.17;;
13445;SDS011;6795;51.232;3.764;2023-11-21T04:25:11;82.90;;;31.50;;
13445;SDS011;6795;51.232;3.764;2023-11-21T04:27:42;85.50;;;31.77;;
13445;SDS011;6795;51.232;3.764;2023-11-21T04:30:12;91.72;;;32.58;;
13445;SDS011;6795;51.232;3.764;2023-11-21T04:32:41;87.07;;;32.63;;
13445;SDS011;6795;51.232;3.764;2023-11-21T04:35:10;77.50;;;32.90;;
13445;SDS011;6795;51.232;3.764;2023-11-21T04:37:40;86.13;;;32.70;;
13445;SDS011;6795;51.232;3.764;2023-11-21T04:40:09;86.65;;;32.28;;
13445;SDS011;6795;51.232;3.764;2023-11-21T04:42:38;85.95;;;32.05;;
13445;SDS011;6795;51.232;3.764;2023-11-21T04:45:07;98.35;;;33.90;;
13445;SDS011;6795;51.232;3.764;2023-11-21T04:47:39;92.43;;;32.22;;
13445;SDS011;6795;51.232;3.764;2023-11-21T04:50:07;96.03;;;33.80;;
13445;SDS011;6795;51.232;3.764;2023-11-21T04:52:36;86.22;;;33.10;;
13445;SDS011;6795;51.232;3.764;2023-11-21T04:55:06;86.80;;;32.45;;
13445;SDS011;6795;51.232;3.764;2023-11-21T04:57:37;90.78;;;34.38;;
13445;SDS011;6795;51.232;3.764;2023-11-21T05:00:08;85.90;;;35.47;;
13445;SDS011;6795;51.232;3.764;2023-11-21T05:02:39;87.85;;;32.97;;
13445;SDS011;6795;51.232;3.764;2023-11-21T05:05:08;85.57;;;33.08;;
13445;SDS011;6795;51.232;3.764;2023-11-21T05:07:38;84.97;;;33.55;;
13445;SDS011;6795;51.232;3.764;2023-11-21T05:10:08;96.40;;;34.45;;
13445;SDS011;6795;51.232;3.764;2023-11-21T05:12:39;86.75;;;34.83;;
13445;SDS011;6795;51.232;3.764;2023-11-21T05:15:08;83.47;;;33.47;;
13445;SDS011;6795;51.232;3.764;2023-11-21T05:17:38;98.63;;;35.65;;
13445;SDS011;6795;51.232;3.764;2023-11-21T05:20:08;89.13;;;32.95;;
13445;SDS011;6795;51.232;3.764;2023-11-21T05:22:39;83.70;;;33.92;;
13445;SDS011;6795;51.232;3.764;2023-11-21T05:25:09;94.22;;;34.85;;
13445;SDS011;6795;51.232;3.764;2023-11-21T05:27:39;97.18;;;36.42;;
13445;SDS011;6795;51.232;3.764;2023-11-21T05:30:08;94.28;;;34.45;;
13445;SDS011;6795;51.232;3.764;2023-11-21T05:32:38;96.32;;;35.78;;
13445;SDS011;6795;51.232;3.764;2023-11-21T05:35:09;104.53;;;36.05;;
13445;SDS011;6795;51.232;3.764;2023-11-21T05:37:42;92.93;;;35.90;;
13445;SDS011;6795;51.232;3.764;2023-11-21T05:40:12;88.65;;;35.53;;
13445;SDS011;6795;51.232;3.764;2023-11-21T05:42:41;90.97;;;35.20;;
13445;SDS011;6795;51.232;3.764;2023-11-21T05:45:09;96.78;;;34.63;;
13445;SDS011;6795;51.232;3.764;2023-11-21T05:47:39;98.55;;;35.53;;
13445;SDS011;6795;51.232;3.764;2023-11-21T05:50:13;94.95;;;35.45;;
13445;SDS011;6795;51.232;3.764;2023-11-21T05:52:43;95.57;;;35.00;;
13445;SDS011;6795;51.232;3.764;2023-11-21T05:55:14;100.60;;;36.85;;
13445;SDS011;6795;51.232;3.764;2023-11-21T05:57:44;108.82;;;37.22;;
13445;SDS011;6795;51.232;3.764;2023-11-21T06:00:13;88.40;;;33.47;;
13445;SDS011;6795;51.232;3.764;2023-11-21T06:02:47;89.68;;;34.55;;
13445;SDS011;6795;51.232;3.764;2023-11-21T06:05:17;93.70;;;35.92;;
13445;SDS011;6795;51.232;3.764;2023-11-21T06:07:46;102.88;;;36.47;;
13445;SDS011;6795;51.232;3.764;2023-11-21T06:10:16;93.18;;;34.78;;
13445;SDS011;6795;51.232;3.764;2023-11-21T06:12:46;105.85;;;37.60;;
13445;SDS011;6795;51.232;3.764;2023-11-21T06:15:15;110.47;;;36.40;;
13445;SDS011;6795;51.232;3.764;2023-11-21T06:17:46;189.50;;;42.65;;
13445;SDS011;6795;51.232;3.764;2023-11-21T06:20:19;172.57;;;39.63;;
13445;SDS011;6795;51.232;3.764;2023-11-21T06:22:48;193.98;;;39.10;;
13445;SDS011;6795;51.232;3.764;2023-11-21T06:25:19;272.33;;;44.45;;
13445;SDS011;6795;51.232;3.764;2023-11-21T06:27:48;178.07;;;38.67;;
13445;SDS011;6795;51.232;3.764;2023-11-21T06:30:18;191.80;;;39.05;;
13445;SDS011;6795;51.232;3.764;2023-11-21T06:32:48;174.77;;;37.08;;
13445;SDS011;6795;51.232;3.764;2023-11-21T06:35:17;173.60;;;36.72;;
13445;SDS011;6795;51.232;3.764;2023-11-21T06:37:49;191.90;;;36.10;;
13445;SDS011;6795;51.232;3.764;2023-11-21T06:40:20;193.55;;;38.72;;
13445;SDS011;6795;51.232;3.764;2023-11-21T06:42:48;168.68;;;35.22;;
13445;SDS011;6795;51.232;3.764;2023-11-21T06:45:18;167.73;;;37.30;;
13445;SDS011;6795;51.232;3.764;2023-11-21T06:47:48;134.77;;;32.63;;
13445;SDS011;6795;51.232;3.764;2023-11-21T06:50:17;161.82;;;33.53;;
13445;SDS011;6795;51.232;3.764;2023-11-21T06:52:45;165.48;;;32.42;;
13445;SDS011;6795;51.232;3.764;2023-11-21T06:55:14;119.95;;;29.65;;
13445;SDS011;6795;51.232;3.764;2023-11-21T06:57:44;101.47;;;25.23;;
13445;SDS011;6795;51.232;3.764;2023-11-21T07:00:15;88.57;;;22.25;;
13445;SDS011;6795;51.232;3.764;2023-11-21T07:02:45;100.00;;;23.35;;
13445;SDS011;6795;51.232;3.764;2023-11-21T07:05:14;106.22;;;25.25;;
13445;SDS011;6795;51.232;3.764;2023-11-21T07:07:47;84.35;;;22.08;;
13445;SDS011;6795;51.232;3.764;2023-11-21T07:10:16;82.47;;;22.23;;
13445;SDS011;6795;51.232;3.764;2023-11-21T07:12:46;78.95;;;21.88;;
13445;SDS011;6795;51.232;3.764;2023-11-21T07:15:14;82.57;;;22.65;;
13445;SDS011;6795;51.232;3.764;2023-11-21T07:17:43;76.45;;;21.80;;
13445;SDS011;6795;51.232;3.764;2023-11-21T07:20:13;82.05;;;21.33;;
13445;SDS011;6795;51.232;3.764;2023-11-21T07:22:43;71.00;;;20.73;;
13445;SDS011;6795;51.232;3.764;2023-11-21T07:25:12;84.43;;;20.95;;
13445;SDS011;6795;51.232;3.764;2023-11-21T07:27:41;64.50;;;18.80;;
13445;SDS011;6795;51.232;3.764;2023-11-21T07:30:12;63.45;;;18.60;;
13445;SDS011;6795;51.232;3.764;2023-11-21T07:32:40;63.10;;;18.20;;
13445;SDS011;6795;51.232;3.764;2023-11-21T07:35:09;60.80;;;17.40;;
13445;SDS011;6795;51.232;3.764;2023-11-21T07:37:38;66.88;;;17.35;;
13445;SDS011;6795;51.232;3.764;2023-11-21T07:40:07;68.75;;;18.67;;
13445;SDS011;6795;51.232;3.764;2023-11-21T07:42:38;76.57;;;18.88;;
13445;SDS011;6795;51.232;3.764;2023-11-21T07:45:07;74.28;;;18.52;;
13445;SDS011;6795;51.232;3.764;2023-11-21T07:47:37;58.00;;;16.25;;
13445;SDS011;6795;51.232;3.764;2023-11-21T07:50:07;61.75;;;17.13;;
13445;SDS011;6795;51.232;3.764;2023-11-21T07:52:36;64.53;;;17.90;;
13445;SDS011;6795;51.232;3.764;2023-11-21T07:55:05;69.05;;;17.80;;
13445;SDS011;6795;51.232;3.764;2023-11-21T07:57:34;63.92;;;17.52;;
13445;SDS011;6795;51.232;3.764;2023-11-21T08:00:03;66.28;;;18.30;;
13445;SDS011;6795;51.232;3.764;2023-11-21T08:02:37;55.15;;;17.55;;
13445;SDS011;6795;51.232;3.764;2023-11-21T08:05:06;56.33;;;17.13;;
13445;SDS011;6795;51.232;3.764;2023-11-21T08:07:41;49.08;;;15.75;;
13445;SDS011;6795;51.232;3.764;2023-11-21T08:10:09;53.90;;;17.02;;
13445;SDS011;6795;51.232;3.764;2023-11-21T08:12:38;40.60;;;14.65;;
13445;SDS011;6795;51.232;3.764;2023-11-21T08:15:06;49.40;;;16.08;;
13445;SDS011;6795;51.232;3.764;2023-11-21T08:17:37;40.35;;;14.32;;
13445;SDS011;6795;51.232;3.764;2023-11-21T08:20:06;44.35;;;14.50;;
13445;SDS011;6795;51.232;3.764;2023-11-21T08:22:35;38.28;;;13.98;;
13445;SDS011;6795;51.232;3.764;2023-11-21T08:25:07;28.23;;;12.90;;
13445;SDS011;6795;51.232;3.764;2023-11-21T08:27:36;21.52;;;10.50;;
13445;SDS011;6795;51.232;3.764;2023-11-21T08:30:05;24.30;;;10.57;;
13445;SDS011;6795;51.232;3.764;2023-11-21T08:32:35;22.80;;;12.05;;
13445;SDS011;6795;51.232;3.764;2023-11-21T08:35:05;18.02;;;12.13;;
13445;SDS011;6795;51.232;3.764;2023-11-21T08:37:35;19.38;;;11.55;;
13445;SDS011;6795;51.232;3.764;2023-11-21T08:40:06;17.88;;;10.15;;
13445;SDS011;6795;51.232;3.764;2023-11-21T08:42:36;20.60;;;10.57;;
13445;SDS011;6795;51.232;3.764;2023-11-21T08:45:04;12.27;;;8.82;;
13445;SDS011;6795;51.232;3.764;2023-11-21T08:47:36;12.40;;;9.35;;
13445;SDS011;6795;51.232;3.764;2023-11-21T08:50:05;19.55;;;10.70;;
13445;SDS011;6795;51.232;3.764;2023-11-21T08:52:35;19.77;;;11.02;;
13445;SDS011;6795;51.232;3.764;2023-11-21T08:55:04;13.48;;;9.60;;
13445;SDS011;6795;51.232;3.764;2023-11-21T08:57:34;15.85;;;9.70;;
13445;SDS011;6795;51.232;3.764;2023-11-21T09:00:03;18.30;;;9.80;;
13445;SDS011;6795;51.232;3.764;2023-11-21T09:02:34;15.85;;;7.57;;
13445;SDS011;6795;51.232;3.764;2023-11-21T09:05:05;13.85;;;6.35;;
13445;SDS011;6795;51.232;3.764;2023-11-21T09:07:35;9.15;;;5.47;;
13445;SDS011;6795;51.232;3.764;2023-11-21T09:10:05;10.65;;;4.22;;
13445;SDS011;6795;51.232;3.764;2023-11-21T09:12:36;16.75;;;6.32;;
13445;SDS011;6795;51.232;3.764;2023-11-21T09:15:05;12.48;;;3.50;;
13445;SDS011;6795;51.232;3.764;2023-11-21T09:17:36;7.63;;;1.23;;
13445;SDS011;6795;51.232;3.764;2023-11-21T09:20:07;12.38;;;2.17;;
13445;SDS011;6795;51.232;3.764;2023-11-21T09:22:37;12.27;;;2.42;;
13445;SDS011;6795;51.232;3.764;2023-11-21T09:25:06;9.27;;;1.92;;
13445;SDS011;6795;51.232;3.764;2023-11-21T09:27:35;9.93;;;3.03;;
13445;SDS011;6795;51.232;3.764;2023-11-21T09:30:04;8.80;;;3.33;;
13445;SDS011;6795;51.232;3.764;2023-11-21T09:32:35;9.50;;;2.15;;
13445;SDS011;6795;51.232;3.764;2023-11-21T09:35:09;24.05;;;3.92;;
13445;SDS011;6795;51.232;3.764;2023-11-21T09:37:38;8.82;;;2.85;;
13445;SDS011;6795;51.232;3.764;2023-11-21T09:40:07;10.10;;;3.35;;
13445;SDS011;6795;51.232;3.764;2023-11-21T09:42:43;14.05;;;4.47;;
13445;SDS011;6795;51.232;3.764;2023-11-21T09:45:17;15.02;;;5.03;;
13445;SDS011;6795;51.232;3.764;2023-11-21T09:47:52;12.93;;;4.95;;
13445;SDS011;6795;51.232;3.764;2023-11-21T09:50:24;17.88;;;6.25;;
13445;SDS011;6795;51.232;3.764;2023-11-21T09:52:54;15.75;;;6.75;;
13445;SDS011;6795;51.232;3.764;2023-11-21T09:55:27;15.35;;;6.32;;
13445;SDS011;6795;51.232;3.764;2023-11-21T09:57:58;17.48;;;5.70;;
13445;SDS011;6795;51.232;3.764;2023-11-21T10:00:27;20.73;;;4.68;;
13445;SDS011;6795;51.232;3.764;2023-11-21T10:02:58;15.82;;;4.38;;
13445;SDS011;6795;51.232;3.764;2023-11-21T10:05:31;11.43;;;4.97;;
13445;SDS011;6795;51.232;3.764;2023-11-21T10:08:01;12.73;;;3.20;;
13445;SDS011;6795;51.232;3.764;2023-11-21T10:10:30;9.82;;;3.30;;
13445;SDS011;6795;51.232;3.764;2023-11-21T10:13:01;24.30;;;4.90;;
13445;SDS011;6795;51.232;3.764;2023-11-21T10:15:33;8.57;;;2.88;;
13445;SDS011;6795;51.232;3.764;2023-11-21T10:18:02;15.73;;;2.88;;
13445;SDS011;6795;51.232;3.764;2023-11-21T10:20:34;13.82;;;2.50;;
13445;SDS011;6795;51.232;3.764;2023-11-21T10:23:04;14.75;;;3.30;;
13445;SDS011;6795;51.232;3.764;2023-11-21T10:25:34;12.75;;;2.60;;
13445;SDS011;6795;51.232;3.764;2023-11-21T10:28:04;12.13;;;2.63;;
13445;SDS011;6795;51.232;3.764;2023-11-21T10:30:34;9.98;;;1.90;;
13445;SDS011;6795;51.232;3.764;2023-11-21T10:33:04;7.35;;;1.95;;
13445;SDS011;6795;51.232;3.764;2023-11-21T10:35:40;8.77;;;1.67;;
13445;SDS011;6795;51.232;3.764;2023-11-21T10:38:13;5.82;;;1.05;;
13445;SDS011;6795;51.232;3.764;2023-11-21T10:40:42;4.45;;;1.35;;
13445;SDS011;6795;51.232;3.764;2023-11-21T10:43:11;7.15;;;0.80;;
13445;SDS011;6795;51.232;3.764;2023-11-21T10:45:41;3.78;;;0.90;;
13445;SDS011;6795;51.232;3.764;2023-11-21T10:48:12;4.47;;;0.80;;
13445;SDS011;6795;51.232;3.764;2023-11-21T10:50:44;5.75;;;1.20;;
13445;SDS011;6795;51.232;3.764;2023-11-21T10:53:14;5.25;;;0.90;;
13445;SDS011;6795;51.232;3.764;2023-11-21T10:55:43;9.38;;;1.25;;
13445;SDS011;6795;51.232;3.764;2023-11-21T10:58:13;13.75;;;1.30;;
13445;SDS011;6795;51.232;3.764;2023-11-21T11:00:42;7.32;;;1.77;;
13445;SDS011;6795;51.232;3.764;2023-11-21T11:03:16;10.15;;;1.70;;
13445;SDS011;6795;51.232;3.764;2023-11-21T11:05:47;8.60;;;1.30;;
13445;SDS011;6795;51.232;3.764;2023-11-21T11:08:20;7.60;;;1.08;;
13445;SDS011;6795;51.232;3.764;2023-11-21T11:10:54;13.40;;;1.33;;
13445;SDS011;6795;51.232;3.764;2023-11-21T11:13:25;7.22;;;1.30;;
13445;SDS011;6795;51.232;3.764;2023-11-21T11:15:56;3.88;;;0.63;;
13445;SDS011;6795;51.232;3.764;2023-11-21T11:18:27;10.13;;;1.08;;
13445;SDS011;6795;51.232;3.764;2023-11-21T11:21:00;11.90;;;1.98;;
13445;SDS011;6795;51.232;3.764;2023-11-21T11:23:41;4.60;;;1.00;;
13445;SDS011;6795;51.232;3.764;2023-11-21T11:26:24;5.35;;;0.60;;
13445;SDS011;6795;51.232;3.764;2023-11-21T11:29:02;11.13;;;1.10;;
13445;SDS011;6795;51.232;3.764;2023-11-21T11:31:37;5.25;;;1.05;;
13445;SDS011;6795;51.232;3.764;2023-11-21T11:34:20;11.23;;;1.30;;
13445;SDS011;6795;51.232;3.764;2023-11-21T11:37:00;5.25;;;0.95;;
13445;SDS011;6795;51.232;3.764;2023-11-21T11:39:30;3.10;;;0.70;;
13445;SDS011;6795;51.232;3.764;2023-11-21T11:42:03;7.35;;;1.10;;
13445;SDS011;6795;51.232;3.764;2023-11-21T11:44:48;5.03;;;0.93;;
13445;SDS011;6795;51.232;3.764;2023-11-21T11:47:23;9.70;;;0.82;;
13445;SDS011;6795;51.232;3.764;2023-11-21T11:50:02;4.43;;;0.60;;
13445;SDS011;6795;51.232;3.764;2023-11-21T11:52:39;4.57;;;1.05;;
13445;SDS011;6795;51.232;3.764;2023-11-21T11:55:09;6.28;;;0.57;;
13445;SDS011;6795;51.232;3.764;2023-11-21T11:57:40;6.40;;;0.73;;
13445;SDS011;6795;51.232;3.764;2023-11-21T12:00:10;7.63;;;0.73;;
13445;SDS011;6795;51.232;3.764;2023-11-21T12:02:44;1.15;;;0.70;;
13445;SDS011;6795;51.232;3.764;2023-11-21T12:05:14;5.78;;;0.65;;
13445;SDS011;6795;51.232;3.764;2023-11-21T12:07:47;4.82;;;0.55;;
13445;SDS011;6795;51.232;3.764;2023-11-21T12:10:18;3.28;;;0.50;;
13445;SDS011;6795;51.232;3.764;2023-11-21T12:12:50;1.25;;;0.65;;
13445;SDS011;6795;51.232;3.764;2023-11-21T12:15:20;4.38;;;0.85;;
13445;SDS011;6795;51.232;3.764;2023-11-21T12:17:52;3.63;;;0.50;;
13445;SDS011;6795;51.232;3.764;2023-11-21T12:20:21;3.65;;;0.77;;
13445;SDS011;6795;51.232;3.764;2023-11-21T12:22:52;3.00;;;0.82;;
13445;SDS011;6795;51.232;3.764;2023-11-21T12:25:23;1.48;;;0.55;;
13445;SDS011;6795;51.232;3.764;2023-11-21T12:27:56;3.88;;;0.77;;
13445;SDS011;6795;51.232;3.764;2023-11-21T12:30:25;6.10;;;0.82;;
13445;SDS011;6795;51.232;3.764;2023-11-21T12:32:57;3.22;;;1.30;;
13445;SDS011;6795;51.232;3.764;2023-11-21T12:35:27;4.32;;;1.88;;
13445;SDS011;6795;51.232;3.764;2023-11-21T12:37:58;2.20;;;0.60;;
13445;SDS011;6795;51.232;3.764;2023-11-21T12:40:29;2.58;;;0.60;;
13445;SDS011;6795;51.232;3.764;2023-11-21T12:42:59;4.22;;;1.30;;
13445;SDS011;6795;51.232;3.764;2023-11-21T12:45:31;2.00;;;0.50;;
13445;SDS011;6795;51.232;3.764;2023-11-21T12:48:00;3.95;;;0.40;;
13445;SDS011;6795;51.232;3.764;2023-11-21T12:50:35;4.78;;;0.88;;
13445;SDS011;6795;51.232;3.764;2023-11-21T12:53:06;6.20;;;0.98;;
13445;SDS011;6795;51.232;3.764;2023-11-21T12:55:41;4.72;;;0.90;;
13445;SDS011;6795;51.232;3.764;2023-11-21T12:58:17;3.05;;;0.50;;
13445;SDS011;6795;51.232;3.764;2023-11-21T13:00:49;2.67;;;0.65;;
13445;SDS011;6795;51.232;3.764;2023-11-21T13:03:18;2.28;;;0.60;;
13445;SDS011;6795;51.232;3.764;2023-11-21T13:05:52;4.88;;;1.75;;
13445;SDS011;6795;51.232;3.764;2023-11-21T13:08:26;3.60;;;0.50;;
13445;SDS011;6795;51.232;3.764;2023-11-21T13:10:57;1.95;;;0.40;;
13445;SDS011;6795;51.232;3.764;2023-11-21T13:13:27;2.47;;;0.50;;
13445;SDS011;6795;51.232;3.764;2023-11-21T13:15:58;0.65;;;0.38;;
13445;SDS011;6795;51.232;3.764;2023-11-21T13:18:33;1.70;;;0.50;;
13445;SDS011;6795;51.232;3.764;2023-11-21T13:21:03;2.05;;;0.40;;
13445;SDS011;6795;51.232;3.764;2023-11-21T13:23:38;1.75;;;0.47;;
13445;SDS011;6795;51.232;3.764;2023-11-21T13:26:09;1.38;;;0.47;;
13445;SDS011;6795;51.232;3.764;2023-11-21T13:28:39;0.77;;;0.45;;
13445;SDS011;6795;51.232;3.764;2023-11-21T13:31:13;0.57;;;0.50;;
13445;SDS011;6795;51.232;3.764;2023-11-21T13:33:53;0.57;;;0.38;;
13445;SDS011;6795;51.232;3.764;2023-11-21T13:36:32;0.50;;;0.50;;
13445;SDS011;6795;51.232;3.764;2023-11-21T13:39:05;1.85;;;0.40;;
13445;SDS011;6795;51.232;3.764;2023-11-21T13:41:42;0.75;;;0.50;;
13445;SDS011;6795;51.232;3.764;2023-11-21T13:44:12;1.95;;;0.60;;
13445;SDS011;6795;51.232;3.764;2023-11-21T13:46:53;0.77;;;0.63;;
13445;SDS011;6795;51.232;3.764;2023-11-21T13:49:24;1.10;;;1.10;;
13445;SDS011;6795;51.232;3.764;2023-11-21T13:51:53;1.80;;;1.70;;
13445;SDS011;6795;51.232;3.764;2023-11-21T13:54:23;1.83;;;1.73;;
13445;SDS011;6795;51.232;3.764;2023-11-21T13:56:52;1.75;;;1.60;;
13445;SDS011;6795;51.232;3.764;2023-11-21T13:59:21;2.53;;;1.77;;
13445;SDS011;6795;51.232;3.764;2023-11-21T14:01:52;1.63;;;1.40;;
13445;SDS011;6795;51.232;3.764;2023-11-21T14:04:24;1.85;;;1.00;;
13445;SDS011;6795;51.232;3.764;2023-11-21T14:07:13;2.33;;;1.02;;
13445;SDS011;6795;51.232;3.764;2023-11-21T14:09:54;1.00;;;0.88;;
13445;SDS011;6795;51.232;3.764;2023-11-21T14:12:22;1.00;;;0.80;;
13445;SDS011;6795;51.232;3.764;2023-11-21T14:14:51;1.10;;;0.80;;
13445;SDS011;6795;51.232;3.764;2023-11-21T14:17:20;0.65;;;0.65;;
13445;SDS011;6795;51.232;3.764;2023-11-21T14:19:51;1.25;;;0.70;;
13445;SDS011;6795;51.232;3.764;2023-11-21T14:22:22;0.70;;;0.60;;
13445;SDS011;6795;51.232;3.764;2023-11-21T14:24:53;1.67;;;0.60;;
13445;SDS011;6795;51.232;3.764;2023-11-21T14:27:26;0.65;;;0.50;;
13445;SDS011;6795;51.232;3.764;2023-11-21T14:29:55;0.93;;;0.40;;
13445;SDS011;6795;51.232;3.764;2023-11-21T14:32:24;1.00;;;0.70;;
13445;SDS011;6795;51.232;3.764;2023-11-21T14:34:53;0.50;;;0.50;;
13445;SDS011;6795;51.232;3.764;2023-11-21T14:37:22;0.80;;;0.80;;
13445;SDS011;6795;51.232;3.764;2023-11-21T14:39:50;1.38;;;0.70;;
13445;SDS011;6795;51.232;3.764;2023-11-21T14:42:20;1.58;;;1.48;;
13445;SDS011;6795;51.232;3.764;2023-11-21T14:44:52;2.38;;;1.40;;
13445;SDS011;6795;51.232;3.764;2023-11-21T14:47:23;2.67;;;2.13;;
13445;SDS011;6795;51.232;3.764;2023-11-21T14:49:54;6.10;;;3.20;;
13445;SDS011;6795;51.232;3.764;2023-11-21T14:52:26;3.38;;;3.15;;
13445;SDS011;6795;51.232;3.764;2023-11-21T14:55:02;3.35;;;3.05;;
13445;SDS011;6795;51.232;3.764;2023-11-21T14:57:59;2.92;;;2.80;;
13445;SDS011;6795;51.232;3.764;2023-11-21T15:00:31;3.40;;;3.20;;